sensor_id;sensor_type;location;lat;lon;timestamp;temperature;humidity
9640;DHT22;51745;50.872;4.732;2023-04-25T00:02:56;7.50;99.90
9640;DHT22;51745;50.872;4.732;2023-04-25T00:05:46;7.40;99.90
9640;DHT22;51745;50.872;4.732;2023-04-25T00:08:47;6.70;99.90
9640;DHT22;51745;50.872;4.732;2023-04-25T00:12:00;8.20;99.90
9640;DHT22;51745;50.872;4.732;2023-04-25T00:14:53;7.50;99.90
9640;DHT22;51745;50.872;4.732;2023-04-25T00:17:45;7.40;99.90
9640;DHT22;51745;50.872;4.732;2023-04-25T00:20:35;7.40;99.90
9640;DHT22;51745;50.872;4.732;2023-04-25T00:23:23;8.40;99.90
9640;DHT22;51745;50.872;4.732;2023-04-25T00:26:11;7.40;99.90
9640;DHT22;51745;50.872;4.732;2023-04-25T00:28:59;7.60;99.90
9640;DHT22;51745;50.872;4.732;2023-04-25T00:31:47;7.50;99.90
9640;DHT22;51745;50.872;4.732;2023-04-25T00:34:37;7.40;99.90
9640;DHT22;51745;50.872;4.732;2023-04-25T00:37:26;7.30;99.90
9640;DHT22;51745;50.872;4.732;2023-04-25T00:40:17;7.30;99.90
9640;DHT22;51745;50.872;4.732;2023-04-25T00:43:05;7.30;99.90
9640;DHT22;51745;50.872;4.732;2023-04-25T00:45:56;7.30;99.90
9640;DHT22;51745;50.872;4.732;2023-04-25T00:48:44;7.30;99.90
9640;DHT22;51745;50.872;4.732;2023-04-25T00:51:33;7.30;99.90
9640;DHT22;51745;50.872;4.732;2023-04-25T00:54:23;7.30;99.90
9640;DHT22;51745;50.872;4.732;2023-04-25T00:57:11;7.30;99.90
9640;DHT22;51745;50.872;4.732;2023-04-25T00:59:59;7.40;99.90
9640;DHT22;51745;50.872;4.732;2023-04-25T01:02:48;7.30;99.90
9640;DHT22;51745;50.872;4.732;2023-04-25T01:05:36;7.30;99.90
9640;DHT22;51745;50.872;4.732;2023-04-25T01:08:26;7.30;99.90
9640;DHT22;51745;50.872;4.732;2023-04-25T01:11:16;7.30;99.90
9640;DHT22;51745;50.872;4.732;2023-04-25T01:14:10;7.20;99.90
9640;DHT22;51745;50.872;4.732;2023-04-25T01:16:58;7.20;99.90
9640;DHT22;51745;50.872;4.732;2023-04-25T01:19:50;7.20;99.90
9640;DHT22;51745;50.872;4.732;2023-04-25T01:22:42;7.30;99.90
9640;DHT22;51745;50.872;4.732;2023-04-25T01:25:30;8.10;99.90
9640;DHT22;51745;50.872;4.732;2023-04-25T01:28:18;7.80;99.90
9640;DHT22;51745;50.872;4.732;2023-04-25T01:31:07;7.00;99.90
9640;DHT22;51745;50.872;4.732;2023-04-25T01:33:57;7.00;99.90
9640;DHT22;51745;50.872;4.732;2023-04-25T01:36:55;6.90;99.90
9640;DHT22;51745;50.872;4.732;2023-04-25T01:39:48;7.00;99.90
9640;DHT22;51745;50.872;4.732;2023-04-25T01:42:38;6.90;99.90
9640;DHT22;51745;50.872;4.732;2023-04-25T01:45:31;6.80;99.90
9640;DHT22;51745;50.872;4.732;2023-04-25T01:48:20;4.90;99.90
9640;DHT22;51745;50.872;4.732;2023-04-25T01:51:13;6.80;99.90
9640;DHT22;51745;50.872;4.732;2023-04-25T01:54:08;6.80;99.90
9640;DHT22;51745;50.872;4.732;2023-04-25T01:56:59;6.90;99.90
9640;DHT22;51745;50.872;4.732;2023-04-25T01:59:48;6.80;99.90
9640;DHT22;51745;50.872;4.732;2023-04-25T02:02:57;6.80;99.90
9640;DHT22;51745;50.872;4.732;2023-04-25T02:05:49;5.40;99.90
9640;DHT22;51745;50.872;4.732;2023-04-25T02:08:37;6.80;99.90
9640;DHT22;51745;50.872;4.732;2023-04-25T02:11:26;6.80;99.90
9640;DHT22;51745;50.872;4.732;2023-04-25T02:14:40;6.80;99.90
9640;DHT22;51745;50.872;4.732;2023-04-25T02:17:46;6.70;99.90
9640;DHT22;51745;50.872;4.732;2023-04-25T02:20:34;6.70;99.90
9640;DHT22;51745;50.872;4.732;2023-04-25T02:23:23;6.70;99.90
9640;DHT22;51745;50.872;4.732;2023-04-25T02:26:11;7.20;99.90
9640;DHT22;51745;50.872;4.732;2023-04-25T02:29:00;6.90;99.90
9640;DHT22;51745;50.872;4.732;2023-04-25T02:31:51;7.00;99.90
9640;DHT22;51745;50.872;4.732;2023-04-25T02:34:40;6.60;99.90
9640;DHT22;51745;50.872;4.732;2023-04-25T02:37:28;3.90;99.90
9640;DHT22;51745;50.872;4.732;2023-04-25T02:40:16;6.50;99.90
9640;DHT22;51745;50.872;4.732;2023-04-25T02:43:06;6.70;99.90
9640;DHT22;51745;50.872;4.732;2023-04-25T02:45:56;6.70;99.90
9640;DHT22;51745;50.872;4.732;2023-04-25T02:48:47;6.70;99.90
9640;DHT22;51745;50.872;4.732;2023-04-25T02:51:35;5.60;99.90
9640;DHT22;51745;50.872;4.732;2023-04-25T02:54:26;6.70;99.90
9640;DHT22;51745;50.872;4.732;2023-04-25T02:57:17;6.60;99.90
9640;DHT22;51745;50.872;4.732;2023-04-25T03:00:05;6.90;99.90
9640;DHT22;51745;50.872;4.732;2023-04-25T03:02:54;6.70;99.90
9640;DHT22;51745;50.872;4.732;2023-04-25T03:05:43;6.60;99.90
9640;DHT22;51745;50.872;4.732;2023-04-25T03:08:37;6.70;99.90
9640;DHT22;51745;50.872;4.732;2023-04-25T03:11:25;6.60;99.90
9640;DHT22;51745;50.872;4.732;2023-04-25T03:14:13;6.60;99.90
9640;DHT22;51745;50.872;4.732;2023-04-25T03:17:01;6.60;99.90
9640;DHT22;51745;50.872;4.732;2023-04-25T03:19:49;6.50;99.90
9640;DHT22;51745;50.872;4.732;2023-04-25T03:22:38;6.70;99.90
9640;DHT22;51745;50.872;4.732;2023-04-25T03:25:27;7.20;99.90
9640;DHT22;51745;50.872;4.732;2023-04-25T03:28:14;6.80;99.90
9640;DHT22;51745;50.872;4.732;2023-04-25T03:31:04;6.40;99.90
9640;DHT22;51745;50.872;4.732;2023-04-25T03:33:51;6.50;99.90
9640;DHT22;51745;50.872;4.732;2023-04-25T03:36:42;6.50;99.90
9640;DHT22;51745;50.872;4.732;2023-04-25T03:39:37;6.60;99.90
9640;DHT22;51745;50.872;4.732;2023-04-25T03:42:25;6.50;99.90
9640;DHT22;51745;50.872;4.732;2023-04-25T03:45:13;6.50;99.90
9640;DHT22;51745;50.872;4.732;2023-04-25T03:48:01;6.40;99.90
9640;DHT22;51745;50.872;4.732;2023-04-25T03:50:58;6.40;99.90
9640;DHT22;51745;50.872;4.732;2023-04-25T03:53:48;6.30;99.90
9640;DHT22;51745;50.872;4.732;2023-04-25T03:56:56;6.30;99.90
9640;DHT22;51745;50.872;4.732;2023-04-25T03:59:46;6.30;99.90
9640;DHT22;51745;50.872;4.732;2023-04-25T04:02:37;6.20;99.90
9640;DHT22;51745;50.872;4.732;2023-04-25T04:05:29;6.20;99.90
9640;DHT22;51745;50.872;4.732;2023-04-25T04:08:17;6.20;99.90
9640;DHT22;51745;50.872;4.732;2023-04-25T04:11:08;6.30;99.90
9640;DHT22;51745;50.872;4.732;2023-04-25T04:13:58;6.10;99.90
9640;DHT22;51745;50.872;4.732;2023-04-25T04:16:46;5.60;99.90
9640;DHT22;51745;50.872;4.732;2023-04-25T04:19:34;7.20;99.90
9640;DHT22;51745;50.872;4.732;2023-04-25T04:22:32;6.00;99.90
9640;DHT22;51745;50.872;4.732;2023-04-25T04:25:24;5.90;99.90
9640;DHT22;51745;50.872;4.732;2023-04-25T04:28:32;5.90;99.90
9640;DHT22;51745;50.872;4.732;2023-04-25T04:31:42;5.90;99.90
9640;DHT22;51745;50.872;4.732;2023-04-25T04:34:32;5.80;99.90
9640;DHT22;51745;50.872;4.732;2023-04-25T04:37:20;5.80;99.90
9640;DHT22;51745;50.872;4.732;2023-04-25T04:40:09;6.50;99.90
9640;DHT22;51745;50.872;4.732;2023-04-25T04:43:17;5.80;99.90
9640;DHT22;51745;50.872;4.732;2023-04-25T04:46:28;5.90;99.90
9640;DHT22;51745;50.872;4.732;2023-04-25T04:49:31;5.90;99.90
9640;DHT22;51745;50.872;4.732;2023-04-25T04:52:38;5.70;99.90
9640;DHT22;51745;50.872;4.732;2023-04-25T04:55:47;6.00;99.90
9640;DHT22;51745;50.872;4.732;2023-04-25T04:58:46;6.10;99.90
9640;DHT22;51745;50.872;4.732;2023-04-25T05:01:54;5.90;99.90
9640;DHT22;51745;50.872;4.732;2023-04-25T05:05:01;5.80;99.90
9640;DHT22;51745;50.872;4.732;2023-04-25T05:08:09;5.90;99.90
9640;DHT22;51745;50.872;4.732;2023-04-25T05:11:24;5.80;99.90
9640;DHT22;51745;50.872;4.732;2023-04-25T05:14:23;6.00;99.90
9640;DHT22;51745;50.872;4.732;2023-04-25T05:17:29;5.90;99.90
9640;DHT22;51745;50.872;4.732;2023-04-25T05:20:30;5.90;99.90
9640;DHT22;51745;50.872;4.732;2023-04-25T05:23:38;5.90;99.90
9640;DHT22;51745;50.872;4.732;2023-04-25T05:26:55;5.90;99.90
9640;DHT22;51745;50.872;4.732;2023-04-25T05:29:46;5.90;99.90
9640;DHT22;51745;50.872;4.732;2023-04-25T05:33:01;5.90;99.90
9640;DHT22;51745;50.872;4.732;2023-04-25T05:35:49;5.90;99.90
9640;DHT22;51745;50.872;4.732;2023-04-25T05:38:37;6.00;99.90
9640;DHT22;51745;50.872;4.732;2023-04-25T05:42:00;6.20;99.90
9640;DHT22;51745;50.872;4.732;2023-04-25T05:45:11;5.90;99.90
9640;DHT22;51745;50.872;4.732;2023-04-25T05:48:08;5.90;99.90
9640;DHT22;51745;50.872;4.732;2023-04-25T05:51:06;6.00;99.90
9640;DHT22;51745;50.872;4.732;2023-04-25T05:54:05;6.00;99.90
9640;DHT22;51745;50.872;4.732;2023-04-25T05:56:53;6.10;99.90
9640;DHT22;51745;50.872;4.732;2023-04-25T05:59:41;6.00;99.90
9640;DHT22;51745;50.872;4.732;2023-04-25T06:02:29;6.00;99.90
9640;DHT22;51745;50.872;4.732;2023-04-25T06:05:17;6.30;99.90
9640;DHT22;51745;50.872;4.732;2023-04-25T06:08:07;6.00;99.90
9640;DHT22;51745;50.872;4.732;2023-04-25T06:10:56;6.90;99.90
9640;DHT22;51745;50.872;4.732;2023-04-25T06:13:46;5.80;99.90
9640;DHT22;51745;50.872;4.732;2023-04-25T06:16:46;6.00;99.90
9640;DHT22;51745;50.872;4.732;2023-04-25T06:19:59;6.10;99.90
9640;DHT22;51745;50.872;4.732;2023-04-25T06:22:50;6.30;99.90
9640;DHT22;51745;50.872;4.732;2023-04-25T06:25:46;6.20;99.90
9640;DHT22;51745;50.872;4.732;2023-04-25T06:28:34;7.50;99.90
9640;DHT22;51745;50.872;4.732;2023-04-25T06:31:23;6.50;99.90
9640;DHT22;51745;50.872;4.732;2023-04-25T06:34:13;6.90;99.90
9640;DHT22;51745;50.872;4.732;2023-04-25T06:37:01;6.60;99.90
9640;DHT22;51745;50.872;4.732;2023-04-25T06:39:49;6.60;99.90
9640;DHT22;51745;50.872;4.732;2023-04-25T06:42:38;6.70;99.90
9640;DHT22;51745;50.872;4.732;2023-04-25T06:45:45;9.20;99.90
9640;DHT22;51745;50.872;4.732;2023-04-25T06:48:34;6.80;99.90
9640;DHT22;51745;50.872;4.732;2023-04-25T06:51:24;6.90;99.90
9640;DHT22;51745;50.872;4.732;2023-04-25T06:54:16;7.00;99.90
9640;DHT22;51745;50.872;4.732;2023-04-25T06:57:14;7.30;99.90
9640;DHT22;51745;50.872;4.732;2023-04-25T07:00:08;7.00;99.90
9640;DHT22;51745;50.872;4.732;2023-04-25T07:02:57;7.10;99.90
9640;DHT22;51745;50.872;4.732;2023-04-25T07:05:48;7.20;99.90
9640;DHT22;51745;50.872;4.732;2023-04-25T07:08:36;7.30;99.90
9640;DHT22;51745;50.872;4.732;2023-04-25T07:11:26;7.10;99.90
9640;DHT22;51745;50.872;4.732;2023-04-25T07:14:18;7.10;99.90
9640;DHT22;51745;50.872;4.732;2023-04-25T07:17:10;7.10;99.90
9640;DHT22;51745;50.872;4.732;2023-04-25T07:19:58;7.10;99.90
9640;DHT22;51745;50.872;4.732;2023-04-25T07:22:50;7.40;99.90
9640;DHT22;51745;50.872;4.732;2023-04-25T07:25:38;7.60;99.90
9640;DHT22;51745;50.872;4.732;2023-04-25T07:28:26;7.70;99.90
9640;DHT22;51745;50.872;4.732;2023-04-25T07:31:17;7.60;99.90
9640;DHT22;51745;50.872;4.732;2023-04-25T07:34:06;7.60;99.90
9640;DHT22;51745;50.872;4.732;2023-04-25T07:36:58;7.70;99.90
9640;DHT22;51745;50.872;4.732;2023-04-25T07:39:54;8.50;99.90
9640;DHT22;51745;50.872;4.732;2023-04-25T07:42:42;7.80;99.90
9640;DHT22;51745;50.872;4.732;2023-04-25T07:45:31;7.90;99.90
9640;DHT22;51745;50.872;4.732;2023-04-25T07:48:20;6.70;99.90
9640;DHT22;51745;50.872;4.732;2023-04-25T07:51:13;5.90;99.90
9640;DHT22;51745;50.872;4.732;2023-04-25T07:54:03;10.00;99.90
9640;DHT22;51745;50.872;4.732;2023-04-25T07:56:54;8.80;99.90
9640;DHT22;51745;50.872;4.732;2023-04-25T07:59:46;9.00;99.90
9640;DHT22;51745;50.872;4.732;2023-04-25T08:02:37;8.60;99.90
9640;DHT22;51745;50.872;4.732;2023-04-25T08:05:31;8.80;99.90
9640;DHT22;51745;50.872;4.732;2023-04-25T08:08:26;8.90;99.90
9640;DHT22;51745;50.872;4.732;2023-04-25T08:11:14;8.10;99.90
9640;DHT22;51745;50.872;4.732;2023-04-25T08:14:03;8.50;99.90
9640;DHT22;51745;50.872;4.732;2023-04-25T08:16:53;8.20;99.90
9640;DHT22;51745;50.872;4.732;2023-04-25T08:19:43;8.20;99.90
9640;DHT22;51745;50.872;4.732;2023-04-25T08:22:41;8.20;99.90
9640;DHT22;51745;50.872;4.732;2023-04-25T08:25:43;7.90;99.90
9640;DHT22;51745;50.872;4.732;2023-04-25T08:28:36;7.80;99.90
9640;DHT22;51745;50.872;4.732;2023-04-25T08:31:27;7.70;99.90
9640;DHT22;51745;50.872;4.732;2023-04-25T08:34:18;7.60;99.90
9640;DHT22;51745;50.872;4.732;2023-04-25T08:37:08;7.50;99.90
9640;DHT22;51745;50.872;4.732;2023-04-25T08:40:13;7.50;99.90
9640;DHT22;51745;50.872;4.732;2023-04-25T08:43:19;7.60;99.90
9640;DHT22;51745;50.872;4.732;2023-04-25T08:46:07;7.30;99.90
9640;DHT22;51745;50.872;4.732;2023-04-25T08:49:03;7.30;99.90
9640;DHT22;51745;50.872;4.732;2023-04-25T08:51:55;7.00;99.90
9640;DHT22;51745;50.872;4.732;2023-04-25T08:54:47;8.30;99.90
9640;DHT22;51745;50.872;4.732;2023-04-25T08:57:36;7.30;99.90
9640;DHT22;51745;50.872;4.732;2023-04-25T09:00:28;7.60;99.90
9640;DHT22;51745;50.872;4.732;2023-04-25T09:03:16;7.70;99.90
9640;DHT22;51745;50.872;4.732;2023-04-25T09:06:09;8.10;99.90
9640;DHT22;51745;50.872;4.732;2023-04-25T09:09:01;8.30;99.90
9640;DHT22;51745;50.872;4.732;2023-04-25T09:11:49;8.50;99.90
9640;DHT22;51745;50.872;4.732;2023-04-25T09:14:38;8.30;99.90
9640;DHT22;51745;50.872;4.732;2023-04-25T09:17:53;8.50;99.90
9640;DHT22;51745;50.872;4.732;2023-04-25T09:20:44;8.70;99.90
9640;DHT22;51745;50.872;4.732;2023-04-25T09:23:41;9.20;99.90
9640;DHT22;51745;50.872;4.732;2023-04-25T09:26:32;9.80;99.90
9640;DHT22;51745;50.872;4.732;2023-04-25T09:29:24;9.80;99.90
9640;DHT22;51745;50.872;4.732;2023-04-25T09:32:17;11.70;99.90
9640;DHT22;51745;50.872;4.732;2023-04-25T09:35:09;9.50;99.90
9640;DHT22;51745;50.872;4.732;2023-04-25T09:38:02;7.00;99.90
9640;DHT22;51745;50.872;4.732;2023-04-25T09:41:07;8.30;99.90
9640;DHT22;51745;50.872;4.732;2023-04-25T09:43:59;9.40;99.90
9640;DHT22;51745;50.872;4.732;2023-04-25T09:46:51;8.40;99.90
9640;DHT22;51745;50.872;4.732;2023-04-25T09:49:43;8.50;99.90
9640;DHT22;51745;50.872;4.732;2023-04-25T09:52:34;8.40;99.90
9640;DHT22;51745;50.872;4.732;2023-04-25T09:55:35;9.40;99.90
9640;DHT22;51745;50.872;4.732;2023-04-25T09:58:24;8.60;99.90
9640;DHT22;51745;50.872;4.732;2023-04-25T10:01:19;8.50;99.90
9640;DHT22;51745;50.872;4.732;2023-04-25T10:04:22;8.50;99.90
9640;DHT22;51745;50.872;4.732;2023-04-25T10:07:20;8.50;99.90
9640;DHT22;51745;50.872;4.732;2023-04-25T10:10:11;9.40;99.90
9640;DHT22;51745;50.872;4.732;2023-04-25T10:13:05;8.50;99.90
9640;DHT22;51745;50.872;4.732;2023-04-25T10:15:54;10.90;99.90
9640;DHT22;51745;50.872;4.732;2023-04-25T10:18:47;9.30;99.90
9640;DHT22;51745;50.872;4.732;2023-04-25T10:21:44;11.00;99.90
9640;DHT22;51745;50.872;4.732;2023-04-25T10:24:35;10.00;99.90
9640;DHT22;51745;50.872;4.732;2023-04-25T10:27:28;10.00;99.90
9640;DHT22;51745;50.872;4.732;2023-04-25T10:30:16;10.60;99.90
9640;DHT22;51745;50.872;4.732;2023-04-25T10:33:16;11.20;99.90
9640;DHT22;51745;50.872;4.732;2023-04-25T10:36:10;10.70;99.90
9640;DHT22;51745;50.872;4.732;2023-04-25T10:38:58;9.40;99.90
9640;DHT22;51745;50.872;4.732;2023-04-25T10:41:53;10.20;99.90
9640;DHT22;51745;50.872;4.732;2023-04-25T10:45:00;10.00;99.90
9640;DHT22;51745;50.872;4.732;2023-04-25T10:47:52;10.30;99.90
9640;DHT22;51745;50.872;4.732;2023-04-25T10:50:42;9.90;99.90
9640;DHT22;51745;50.872;4.732;2023-04-25T10:53:33;9.80;99.90
9640;DHT22;51745;50.872;4.732;2023-04-25T10:56:23;10.10;99.90
9640;DHT22;51745;50.872;4.732;2023-04-25T10:59:15;11.90;99.90
9640;DHT22;51745;50.872;4.732;2023-04-25T11:02:10;12.30;99.90
9640;DHT22;51745;50.872;4.732;2023-04-25T11:05:01;12.00;99.90
9640;DHT22;51745;50.872;4.732;2023-04-25T11:07:51;12.60;99.90
9640;DHT22;51745;50.872;4.732;2023-04-25T11:10:43;11.80;99.90
9640;DHT22;51745;50.872;4.732;2023-04-25T11:13:35;11.60;99.90
9640;DHT22;51745;50.872;4.732;2023-04-25T11:16:26;10.70;99.90
9640;DHT22;51745;50.872;4.732;2023-04-25T11:19:24;10.50;99.90
9640;DHT22;51745;50.872;4.732;2023-04-25T11:22:13;10.90;99.90
9640;DHT22;51745;50.872;4.732;2023-04-25T11:25:04;10.50;99.90
9640;DHT22;51745;50.872;4.732;2023-04-25T11:27:55;10.00;99.90
9640;DHT22;51745;50.872;4.732;2023-04-25T11:30:47;9.50;99.90
9640;DHT22;51745;50.872;4.732;2023-04-25T11:33:39;10.70;99.90
9640;DHT22;51745;50.872;4.732;2023-04-25T11:36:31;9.00;99.90
9640;DHT22;51745;50.872;4.732;2023-04-25T11:39:19;9.90;99.90
9640;DHT22;51745;50.872;4.732;2023-04-25T11:42:08;9.80;99.90
9640;DHT22;51745;50.872;4.732;2023-04-25T11:44:58;10.00;99.90
9640;DHT22;51745;50.872;4.732;2023-04-25T11:47:46;9.80;99.90
9640;DHT22;51745;50.872;4.732;2023-04-25T11:50:35;12.00;99.90
9640;DHT22;51745;50.872;4.732;2023-04-25T11:53:26;10.40;99.90
9640;DHT22;51745;50.872;4.732;2023-04-25T11:56:14;11.10;99.90
9640;DHT22;51745;50.872;4.732;2023-04-25T11:59:05;11.60;99.90
9640;DHT22;51745;50.872;4.732;2023-04-25T12:01:56;11.70;99.90
9640;DHT22;51745;50.872;4.732;2023-04-25T12:04:49;12.20;99.90
9640;DHT22;51745;50.872;4.732;2023-04-25T12:08:17;12.60;99.90
9640;DHT22;51745;50.872;4.732;2023-04-25T12:11:17;12.90;99.90
9640;DHT22;51745;50.872;4.732;2023-04-25T12:14:09;12.40;99.90
9640;DHT22;51745;50.872;4.732;2023-04-25T12:17:02;11.60;99.90
9640;DHT22;51745;50.872;4.732;2023-04-25T12:19:55;11.60;99.90
9640;DHT22;51745;50.872;4.732;2023-04-25T12:22:45;10.00;99.90
9640;DHT22;51745;50.872;4.732;2023-04-25T12:25:34;10.20;99.90
9640;DHT22;51745;50.872;4.732;2023-04-25T12:28:24;10.40;99.90
9640;DHT22;51745;50.872;4.732;2023-04-25T12:31:13;10.50;99.90
9640;DHT22;51745;50.872;4.732;2023-04-25T12:34:05;10.50;99.90
9640;DHT22;51745;50.872;4.732;2023-04-25T12:36:56;10.40;99.90
9640;DHT22;51745;50.872;4.732;2023-04-25T12:39:47;10.30;99.90
9640;DHT22;51745;50.872;4.732;2023-04-25T12:42:35;10.90;99.90
9640;DHT22;51745;50.872;4.732;2023-04-25T12:45:25;12.10;99.90
9640;DHT22;51745;50.872;4.732;2023-04-25T12:48:15;13.10;99.90
9640;DHT22;51745;50.872;4.732;2023-04-25T12:51:06;12.30;99.90
9640;DHT22;51745;50.872;4.732;2023-04-25T12:53:54;11.40;99.90
9640;DHT22;51745;50.872;4.732;2023-04-25T12:56:44;11.30;99.90
9640;DHT22;51745;50.872;4.732;2023-04-25T12:59:33;12.20;99.90
9640;DHT22;51745;50.872;4.732;2023-04-25T13:02:22;12.80;99.90
9640;DHT22;51745;50.872;4.732;2023-04-25T13:05:10;13.40;99.90
9640;DHT22;51745;50.872;4.732;2023-04-25T13:08:02;14.10;99.90
9640;DHT22;51745;50.872;4.732;2023-04-25T13:10:50;13.80;99.90
9640;DHT22;51745;50.872;4.732;2023-04-25T13:13:37;14.00;99.90
9640;DHT22;51745;50.872;4.732;2023-04-25T13:16:26;12.10;99.90
9640;DHT22;51745;50.872;4.732;2023-04-25T13:19:17;11.60;99.90
9640;DHT22;51745;50.872;4.732;2023-04-25T13:22:06;11.20;99.90
9640;DHT22;51745;50.872;4.732;2023-04-25T13:24:55;10.70;99.90
9640;DHT22;51745;50.872;4.732;2023-04-25T13:27:43;10.60;99.90
9640;DHT22;51745;50.872;4.732;2023-04-25T13:30:30;9.90;99.90
9640;DHT22;51745;50.872;4.732;2023-04-25T13:33:21;10.40;99.90
9640;DHT22;51745;50.872;4.732;2023-04-25T13:36:13;10.80;99.90
9640;DHT22;51745;50.872;4.732;2023-04-25T13:39:03;11.20;99.90
9640;DHT22;51745;50.872;4.732;2023-04-25T13:41:51;11.80;99.90
9640;DHT22;51745;50.872;4.732;2023-04-25T13:44:42;9.60;99.90
9640;DHT22;51745;50.872;4.732;2023-04-25T13:47:30;12.00;99.90
9640;DHT22;51745;50.872;4.732;2023-04-25T13:50:18;12.90;99.90
9640;DHT22;51745;50.872;4.732;2023-04-25T13:53:08;11.40;99.90
9640;DHT22;51745;50.872;4.732;2023-04-25T13:55:57;12.40;99.90
9640;DHT22;51745;50.872;4.732;2023-04-25T13:58:44;13.60;99.90
9640;DHT22;51745;50.872;4.732;2023-04-25T14:01:32;13.70;99.90
9640;DHT22;51745;50.872;4.732;2023-04-25T14:04:22;13.90;99.90
9640;DHT22;51745;50.872;4.732;2023-04-25T14:07:10;13.80;99.90
9640;DHT22;51745;50.872;4.732;2023-04-25T14:10:00;13.90;99.90
9640;DHT22;51745;50.872;4.732;2023-04-25T14:12:48;14.80;99.90
9640;DHT22;51745;50.872;4.732;2023-04-25T14:15:36;13.70;99.90
9640;DHT22;51745;50.872;4.732;2023-04-25T14:18:24;13.40;99.90
9640;DHT22;51745;50.872;4.732;2023-04-25T14:21:15;12.40;99.90
9640;DHT22;51745;50.872;4.732;2023-04-25T14:24:06;11.80;99.90
9640;DHT22;51745;50.872;4.732;2023-04-25T14:27:03;11.80;99.90
9640;DHT22;51745;50.872;4.732;2023-04-25T14:29:51;12.40;99.90
9640;DHT22;51745;50.872;4.732;2023-04-25T14:32:39;12.70;99.90
9640;DHT22;51745;50.872;4.732;2023-04-25T14:35:27;12.80;99.90
9640;DHT22;51745;50.872;4.732;2023-04-25T14:38:16;12.90;99.90
9640;DHT22;51745;50.872;4.732;2023-04-25T14:41:11;12.30;99.90
9640;DHT22;51745;50.872;4.732;2023-04-25T14:44:00;12.10;99.90
9640;DHT22;51745;50.872;4.732;2023-04-25T14:46:48;12.00;99.90
9640;DHT22;51745;50.872;4.732;2023-04-25T14:49:43;9.80;99.90
9640;DHT22;51745;50.872;4.732;2023-04-25T14:52:37;11.60;99.90
9640;DHT22;51745;50.872;4.732;2023-04-25T14:55:27;13.50;99.90
9640;DHT22;51745;50.872;4.732;2023-04-25T14:58:16;11.10;99.90
9640;DHT22;51745;50.872;4.732;2023-04-25T15:01:04;11.00;99.90
9640;DHT22;51745;50.872;4.732;2023-04-25T15:03:56;12.00;99.90
9640;DHT22;51745;50.872;4.732;2023-04-25T15:06:47;12.60;99.90
9640;DHT22;51745;50.872;4.732;2023-04-25T15:09:35;12.50;99.90
9640;DHT22;51745;50.872;4.732;2023-04-25T15:12:24;12.40;99.90
9640;DHT22;51745;50.872;4.732;2023-04-25T15:15:14;11.90;99.90
9640;DHT22;51745;50.872;4.732;2023-04-25T15:18:13;11.80;99.90
9640;DHT22;51745;50.872;4.732;2023-04-25T15:21:02;11.80;99.90
9640;DHT22;51745;50.872;4.732;2023-04-25T15:23:51;11.30;99.90
9640;DHT22;51745;50.872;4.732;2023-04-25T15:26:38;11.30;99.90
9640;DHT22;51745;50.872;4.732;2023-04-25T15:29:29;10.80;99.90
9640;DHT22;51745;50.872;4.732;2023-04-25T15:32:17;10.70;99.90
9640;DHT22;51745;50.872;4.732;2023-04-25T15:35:06;10.50;99.90
9640;DHT22;51745;50.872;4.732;2023-04-25T15:37:55;10.50;99.90
9640;DHT22;51745;50.872;4.732;2023-04-25T15:40:45;10.80;99.90
9640;DHT22;51745;50.872;4.732;2023-04-25T15:43:33;9.60;99.90
9640;DHT22;51745;50.872;4.732;2023-04-25T15:46:24;11.10;99.90
9640;DHT22;51745;50.872;4.732;2023-04-25T15:49:13;13.00;99.90
9640;DHT22;51745;50.872;4.732;2023-04-25T15:52:03;9.00;99.90
9640;DHT22;51745;50.872;4.732;2023-04-25T15:54:55;11.00;99.90
9640;DHT22;51745;50.872;4.732;2023-04-25T15:57:43;10.30;99.90
9640;DHT22;51745;50.872;4.732;2023-04-25T16:00:32;10.40;99.90
9640;DHT22;51745;50.872;4.732;2023-04-25T16:03:25;10.50;99.90
9640;DHT22;51745;50.872;4.732;2023-04-25T16:06:12;10.70;99.90
9640;DHT22;51745;50.872;4.732;2023-04-25T16:09:05;10.60;99.90
9640;DHT22;51745;50.872;4.732;2023-04-25T16:11:53;10.00;99.90
9640;DHT22;51745;50.872;4.732;2023-04-25T16:14:41;10.20;99.90
9640;DHT22;51745;50.872;4.732;2023-04-25T16:17:30;8.50;99.90
9640;DHT22;51745;50.872;4.732;2023-04-25T16:20:19;8.40;99.90
9640;DHT22;51745;50.872;4.732;2023-04-25T16:23:07;9.50;99.90
9640;DHT22;51745;50.872;4.732;2023-04-25T16:25:57;11.00;99.90
9640;DHT22;51745;50.872;4.732;2023-04-25T16:28:45;11.10;99.90
9640;DHT22;51745;50.872;4.732;2023-04-25T16:31:32;10.20;99.90
9640;DHT22;51745;50.872;4.732;2023-04-25T16:34:24;10.20;99.90
9640;DHT22;51745;50.872;4.732;2023-04-25T16:37:12;10.20;99.90
9640;DHT22;51745;50.872;4.732;2023-04-25T16:40:00;10.30;99.90
9640;DHT22;51745;50.872;4.732;2023-04-25T16:42:49;10.50;99.90
9640;DHT22;51745;50.872;4.732;2023-04-25T16:45:37;10.50;99.90
9640;DHT22;51745;50.872;4.732;2023-04-25T16:48:25;10.40;99.90
9640;DHT22;51745;50.872;4.732;2023-04-25T16:51:24;10.40;99.90
9640;DHT22;51745;50.872;4.732;2023-04-25T16:54:13;10.40;99.90
9640;DHT22;51745;50.872;4.732;2023-04-25T16:57:03;10.40;99.90
9640;DHT22;51745;50.872;4.732;2023-04-25T16:59:57;10.60;99.90
9640;DHT22;51745;50.872;4.732;2023-04-25T17:02:46;10.80;99.90
9640;DHT22;51745;50.872;4.732;2023-04-25T17:05:34;10.60;99.90
9640;DHT22;51745;50.872;4.732;2023-04-25T17:08:23;10.60;99.90
9640;DHT22;51745;50.872;4.732;2023-04-25T17:11:10;10.70;99.90
9640;DHT22;51745;50.872;4.732;2023-04-25T17:14:01;10.70;99.90
9640;DHT22;51745;50.872;4.732;2023-04-25T17:16:50;10.50;99.90
9640;DHT22;51745;50.872;4.732;2023-04-25T17:19:40;10.20;99.90
9640;DHT22;51745;50.872;4.732;2023-04-25T17:22:28;10.20;99.90
9640;DHT22;51745;50.872;4.732;2023-04-25T17:25:16;10.30;99.90
9640;DHT22;51745;50.872;4.732;2023-04-25T17:28:04;10.20;99.90
9640;DHT22;51745;50.872;4.732;2023-04-25T17:30:52;10.60;99.90
9640;DHT22;51745;50.872;4.732;2023-04-25T17:33:45;9.90;99.90
9640;DHT22;51745;50.872;4.732;2023-04-25T17:36:33;9.40;99.90
9640;DHT22;51745;50.872;4.732;2023-04-25T17:39:22;9.70;99.90
9640;DHT22;51745;50.872;4.732;2023-04-25T17:42:11;9.90;99.90
9640;DHT22;51745;50.872;4.732;2023-04-25T17:45:01;10.10;99.90
9640;DHT22;51745;50.872;4.732;2023-04-25T17:47:50;10.00;99.90
9640;DHT22;51745;50.872;4.732;2023-04-25T17:50:41;9.70;99.90
9640;DHT22;51745;50.872;4.732;2023-04-25T17:53:30;9.70;99.90
9640;DHT22;51745;50.872;4.732;2023-04-25T17:56:17;9.80;99.90
9640;DHT22;51745;50.872;4.732;2023-04-25T17:59:12;9.60;99.90
9640;DHT22;51745;50.872;4.732;2023-04-25T18:02:01;9.40;99.90
9640;DHT22;51745;50.872;4.732;2023-04-25T18:04:49;9.50;99.90
9640;DHT22;51745;50.872;4.732;2023-04-25T18:07:39;9.30;99.90
9640;DHT22;51745;50.872;4.732;2023-04-25T18:10:27;9.20;99.90
9640;DHT22;51745;50.872;4.732;2023-04-25T18:13:16;9.10;99.90
9640;DHT22;51745;50.872;4.732;2023-04-25T18:16:06;9.10;99.90
9640;DHT22;51745;50.872;4.732;2023-04-25T18:18:54;9.00;99.90
9640;DHT22;51745;50.872;4.732;2023-04-25T18:21:52;8.90;99.90
9640;DHT22;51745;50.872;4.732;2023-04-25T18:24:43;8.90;99.90
9640;DHT22;51745;50.872;4.732;2023-04-25T18:27:39;8.90;99.90
9640;DHT22;51745;50.872;4.732;2023-04-25T18:30:27;10.90;99.90
9640;DHT22;51745;50.872;4.732;2023-04-25T18:33:15;8.60;99.90
9640;DHT22;51745;50.872;4.732;2023-04-25T18:36:04;8.50;99.90